createdAt,value
2023-02-08T00:01:08.526Z,2.47
2023-02-08T00:06:13.559Z,1.83
2023-02-08T00:11:15.996Z,2.16
2023-02-08T00:16:18.956Z,1.58
2023-02-08T00:21:21.709Z,2.11
2023-02-08T00:26:24.211Z,1.90
2023-02-08T00:31:26.739Z,1.90
2023-02-08T00:36:29.168Z,2.55
2023-02-08T00:41:31.615Z,2.27
2023-02-08T00:46:34.265Z,2.47
2023-02-08T00:51:36.769Z,2.39
2023-02-08T00:56:39.138Z,1.92
2023-02-08T01:01:42.502Z,2.04
2023-02-08T01:06:45.018Z,2.22
2023-02-08T01:11:47.632Z,2.15
2023-02-08T01:16:50.337Z,1.89
2023-02-08T01:21:53.072Z,2.35
2023-02-08T01:26:55.471Z,3.00
2023-02-08T01:31:57.914Z,3.04
2023-02-08T01:37:00.315Z,2.47
2023-02-08T01:42:03.035Z,2.50
2023-02-08T01:47:05.507Z,2.46
2023-02-08T01:52:17.006Z,2.01
2023-02-08T01:57:22.271Z,1.20
2023-02-08T02:02:26.506Z,1.49
2023-02-08T02:07:31.392Z,1.28
2023-02-08T02:12:36.681Z,1.53
2023-02-08T02:17:40.415Z,2.28
2023-02-08T02:22:59.706Z,1.47
2023-02-08T02:28:14.177Z,1.80
2023-02-08T02:33:28.548Z,0.93
2023-02-08T02:39:03.414Z,0.32
2023-02-08T02:44:18.457Z,-0.63
2023-02-08T02:49:45.752Z,0.12
2023-02-08T02:54:53.180Z,0.07
2023-02-08T02:59:57.625Z,-0.04
2023-02-08T03:05:00.136Z,0.42
2023-02-08T03:10:40.681Z,1.03
2023-02-08T03:16:13.170Z,-0.19
2023-02-08T03:21:42.447Z,0.32
2023-02-08T03:27:24.473Z,0.25
2023-02-08T03:32:47.108Z,0.37
2023-02-08T03:37:58.314Z,0.77
2023-02-08T03:43:07.397Z,0.60
2023-02-08T03:48:14.119Z,-0.02
2023-02-08T03:53:20.908Z,-0.58
2023-02-08T03:58:32.875Z,-0.99
2023-02-08T04:03:36.685Z,-0.65
2023-02-08T04:08:39.050Z,-0.20
2023-02-08T04:13:41.454Z,0.03
2023-02-08T04:18:43.900Z,-0.91
2023-02-08T04:23:46.313Z,-0.52
2023-02-08T04:28:48.744Z,-0.83
2023-02-08T04:33:51.389Z,-0.83
2023-02-08T04:38:54.068Z,-0.35
2023-02-08T04:43:56.653Z,-1.06
2023-02-08T04:48:59.200Z,-0.64
2023-02-08T04:54:01.653Z,0.20
2023-02-08T04:59:04.519Z,-0.47
2023-02-08T05:04:07.177Z,-0.64
2023-02-08T05:09:10.430Z,-0.34
2023-02-08T05:14:12.946Z,-0.90
2023-02-08T05:19:15.419Z,-0.16
2023-02-08T05:24:18.121Z,0.04
2023-02-08T05:29:20.718Z,0.11
2023-02-08T05:34:23.444Z,0.65
2023-02-08T05:39:25.862Z,-0.01
2023-02-08T05:44:28.347Z,0.07
2023-02-08T05:49:31.129Z,1.28
2023-02-08T05:54:33.599Z,1.53
2023-02-08T05:59:36.040Z,0.11
2023-02-08T06:04:39.262Z,0.53
2023-02-08T06:09:41.719Z,-0.58
2023-02-08T06:14:45.057Z,-1.31
2023-02-08T06:19:47.691Z,-1.05
2023-02-08T06:24:50.380Z,-0.47
2023-02-08T06:29:53.648Z,-1.40
2023-02-08T06:34:56.912Z,-1.13
2023-02-08T06:40:00.704Z,-0.57
2023-02-08T06:45:03.591Z,-0.24
2023-02-08T06:50:06.831Z,0.08
2023-02-08T06:55:09.423Z,0.04
2023-02-08T07:00:12.556Z,-0.54
2023-02-08T07:05:15.332Z,-0.56
2023-02-08T07:10:17.880Z,-0.94
2023-02-08T07:15:20.577Z,-0.88
2023-02-08T07:20:23.585Z,-0.48
2023-02-08T07:25:26.255Z,0.32
2023-02-08T07:30:28.829Z,0.83
2023-02-08T07:35:31.321Z,1.18
2023-02-08T07:40:34.114Z,1.94
2023-02-08T07:45:38.559Z,2.49
2023-02-08T07:50:41.242Z,2.36
2023-02-08T07:55:46.077Z,2.25
2023-02-08T08:00:48.510Z,2.33
2023-02-08T08:05:53.492Z,2.25
2023-02-08T08:10:57.449Z,2.24
2023-02-08T08:15:59.906Z,2.58
2023-02-08T08:21:02.885Z,2.83
2023-02-08T08:26:14.710Z,3.02
2023-02-08T08:31:22.536Z,2.76
2023-02-08T08:36:25.445Z,2.97
2023-02-08T08:41:28.639Z,2.74
2023-02-08T08:46:31.297Z,2.91
2023-02-08T08:51:35.484Z,3.08
2023-02-08T08:56:38.147Z,3.31
2023-02-08T09:01:42.400Z,4.70
2023-02-08T09:06:44.871Z,5.04
2023-02-08T09:11:47.837Z,4.06
2023-02-08T09:16:50.511Z,3.85
2023-02-08T09:21:53.124Z,4.66
2023-02-08T09:26:55.944Z,5.40
2023-02-08T09:31:58.480Z,6.83
2023-02-08T09:37:00.956Z,6.64
2023-02-08T09:42:40.419Z,6.71
2023-02-08T09:48:00.608Z,5.87
2023-02-08T09:53:34.346Z,7.45
2023-02-08T09:58:41.532Z,6.41
2023-02-08T10:03:45.230Z,7.31
2023-02-08T10:08:52.411Z,7.28
2023-02-08T10:14:42.918Z,7.60
2023-02-08T10:19:59.894Z,8.00
2023-02-08T10:25:23.643Z,8.35
2023-02-08T10:30:26.579Z,7.71
2023-02-08T10:35:37.096Z,8.57
2023-02-08T10:40:41.764Z,8.20
2023-02-08T10:45:53.628Z,7.58
2023-02-08T10:50:56.337Z,6.87
2023-02-08T10:55:58.819Z,7.63
2023-02-08T11:01:02.280Z,8.47
2023-02-08T11:06:05.288Z,8.29
2023-02-08T11:11:10.411Z,7.79
2023-02-08T11:16:22.607Z,9.45
2023-02-08T11:21:33.665Z,10.85
2023-02-08T11:26:40.048Z,12.62
2023-02-08T11:32:14.526Z,15.63
2023-02-08T11:37:26.524Z,17.89
2023-02-08T11:42:38.048Z,19.18
2023-02-08T11:47:40.601Z,18.98
2023-02-08T11:52:46.352Z,19.28
2023-02-08T11:58:14.833Z,20.33
2023-02-08T12:03:27.598Z,19.64
2023-02-08T12:09:02.848Z,17.62
2023-02-08T12:14:10.726Z,18.54
2023-02-08T12:20:04.810Z,17.56
2023-02-08T12:25:24.967Z,15.64
2023-02-08T12:30:47.768Z,15.50
2023-02-08T12:36:05.806Z,14.76
2023-02-08T12:41:32.265Z,14.28
2023-02-08T12:46:46.714Z,14.34
2023-02-08T12:52:15.822Z,14.89
2023-02-08T12:57:21.612Z,16.74
2023-02-08T13:03:11.107Z,14.63
2023-02-08T13:08:45.803Z,14.17
2023-02-08T13:14:04.851Z,14.68
2023-02-08T13:19:31.823Z,14.13
2023-02-08T13:24:40.277Z,16.40
2023-02-08T13:29:47.189Z,16.82
2023-02-08T13:34:55.537Z,16.80
2023-02-08T13:40:21.598Z,12.91
2023-02-08T13:45:45.405Z,10.92
2023-02-08T13:50:52.014Z,10.14
2023-02-08T13:56:01.284Z,9.81
2023-02-08T14:01:15.143Z,9.44
2023-02-08T14:06:26.187Z,9.26
2023-02-08T14:11:46.742Z,9.01
2023-02-08T14:17:04.241Z,8.75
2023-02-08T14:22:12.247Z,8.86
2023-02-08T14:27:32.613Z,8.47
2023-02-08T14:32:40.935Z,8.13
2023-02-08T14:37:44.941Z,8.21
2023-02-08T14:42:58.731Z,8.11
2023-02-08T14:48:21.284Z,7.86
2023-02-08T14:53:59.950Z,7.91
2023-02-08T14:59:09.243Z,7.67
2023-02-08T15:04:13.530Z,7.24
2023-02-08T15:09:23.248Z,7.27
2023-02-08T15:14:26.152Z,7.38
2023-02-08T15:19:38.577Z,7.47
2023-02-08T15:24:55.091Z,7.28
2023-02-08T15:29:57.432Z,7.21
2023-02-08T15:35:04.767Z,7.22
2023-02-08T15:40:07.691Z,7.23
2023-02-08T15:45:30.844Z,7.03
2023-02-08T15:50:33.928Z,7.13
2023-02-08T15:55:51.367Z,7.06
2023-02-08T16:00:54.054Z,6.51
2023-02-08T16:06:02.089Z,6.06
2023-02-08T16:11:20.975Z,5.96
2023-02-08T16:16:35.350Z,5.88
2023-02-08T16:21:42.361Z,5.61
2023-02-08T16:27:04.542Z,5.57
2023-02-08T16:32:32.092Z,5.35
2023-02-08T16:37:35.936Z,5.08
2023-02-08T16:42:40.555Z,4.94
2023-02-08T16:47:47.484Z,4.97
2023-02-08T16:53:01.596Z,5.22
2023-02-08T16:58:03.976Z,5.01
2023-02-08T17:03:06.111Z,5.01
2023-02-08T17:08:16.001Z,4.80
2023-02-08T17:13:21.179Z,4.89
2023-02-08T17:18:23.695Z,4.92
2023-02-08T17:23:27.012Z,4.76
2023-02-08T17:28:29.323Z,4.79
2023-02-08T17:33:36.437Z,4.70
2023-02-08T17:38:40.053Z,4.18
2023-02-08T17:43:42.242Z,4.12
2023-02-08T17:48:47.262Z,3.94
2023-02-08T17:53:51.433Z,4.28
2023-02-08T17:58:56.017Z,4.19
2023-02-08T18:04:01.013Z,4.00
2023-02-08T18:09:03.794Z,3.57
2023-02-08T18:14:06.271Z,3.83
2023-02-08T18:19:08.848Z,3.82
2023-02-08T18:24:12.062Z,3.44
2023-02-08T18:29:14.894Z,3.33
2023-02-08T18:34:18.685Z,3.74
2023-02-08T18:39:23.356Z,3.81
2023-02-08T18:44:26.205Z,3.78
2023-02-08T18:49:29.461Z,3.65
2023-02-08T18:54:32.452Z,3.74
2023-02-08T18:59:34.611Z,3.68
2023-02-08T19:04:38.956Z,3.62
2023-02-08T19:09:41.190Z,3.71
2023-02-08T19:14:44.089Z,3.33
2023-02-08T19:19:46.767Z,3.42
2023-02-08T19:24:48.906Z,3.53
2023-02-08T19:29:56.356Z,3.71
2023-02-08T19:34:58.934Z,3.74
2023-02-08T19:40:01.573Z,4.02
2023-02-08T19:45:04.278Z,3.87
2023-02-08T19:50:07.283Z,3.48
2023-02-08T19:55:10.921Z,2.79
2023-02-08T20:00:22.872Z,3.26
2023-02-08T20:05:26.389Z,3.64
2023-02-08T20:10:29.085Z,3.73
2023-02-08T20:15:31.739Z,3.68
2023-02-08T20:20:34.803Z,3.35
2023-02-08T20:25:37.406Z,3.24
2023-02-08T20:30:41.569Z,3.25
2023-02-08T20:35:44.441Z,2.78
2023-02-08T20:40:47.107Z,2.69
2023-02-08T20:45:49.560Z,2.94
2023-02-08T20:50:52.169Z,2.82
2023-02-08T20:55:54.769Z,2.53
2023-02-08T21:00:57.614Z,2.82
2023-02-08T21:06:00.133Z,3.08
2023-02-08T21:11:03.072Z,3.06
2023-02-08T21:16:07.431Z,3.04
2023-02-08T21:21:10.493Z,3.10
2023-02-08T21:26:16.049Z,3.21
2023-02-08T21:31:22.184Z,3.40
2023-02-08T21:36:25.543Z,2.77
2023-02-08T21:41:31.441Z,2.83
2023-02-08T21:46:34.023Z,2.78
2023-02-08T21:51:55.892Z,2.60
2023-02-08T21:57:03.437Z,2.78
2023-02-08T22:02:08.283Z,2.73
2023-02-08T22:07:10.705Z,2.47
2023-02-08T22:12:18.506Z,2.50
2023-02-08T22:17:20.990Z,2.43
2023-02-08T22:22:24.245Z,2.33
2023-02-08T22:27:27.773Z,2.15
2023-02-08T22:32:30.638Z,1.69
2023-02-08T22:37:34.064Z,1.20
2023-02-08T22:42:38.055Z,1.46
2023-02-08T22:47:40.609Z,1.52
2023-02-08T22:52:43.148Z,1.41
2023-02-08T22:57:45.798Z,1.43
2023-02-08T23:02:48.269Z,1.23
2023-02-08T23:07:50.691Z,1.07
2023-02-08T23:12:53.154Z,0.81
2023-02-08T23:17:55.687Z,0.77
2023-02-08T23:22:58.354Z,0.72
2023-02-08T23:28:01.131Z,0.75
2023-02-08T23:33:03.762Z,0.85
2023-02-08T23:38:06.194Z,1.16
2023-02-08T23:43:09.267Z,0.72
2023-02-08T23:48:11.703Z,0.45
2023-02-08T23:53:14.125Z,0.89
2023-02-08T23:58:16.548Z,0.94
